Time;durP1;ratioP1;P1;durP2;ratioP2;P2;SDS_P1;SDS_P2;PMS_P1;PMS_P2;Temp;Humidity;BMP_temperature;BMP_pressure;BME280_temperature;BME280_humidity;BME280_pressure;Samples;Min_cycle;Max_cycle;Signal;HPM_P1;HPM_P2
2022/01/08 00:00:48;;;;;;;26.30;18.73;;;;;;;-0.54;94.82;98980.09;1279683;109;21227;-68
2022/01/08 00:03:15;;;;;;;26.02;17.62;;;;;;;-0.55;94.87;98969.44;1271074;112;22108;-69
2022/01/08 00:05:41;;;;;;;28.90;19.07;;;;;;;-0.48;94.86;98968.48;1295945;109;21214;-69
2022/01/08 00:08:08;;;;;;;24.70;17.55;;;;;;;-0.48;94.81;98965.05;1309057;109;21273;-69
2022/01/08 00:10:35;;;;;;;32.60;19.50;;;;;;;-0.50;94.76;98966.38;1283461;109;21734;-69
2022/01/08 00:13:04;;;;;;;31.42;19.05;;;;;;;-0.50;94.76;98966.38;1309686;107;21992;-69
2022/01/08 00:15:30;;;;;;;25.82;17.65;;;;;;;-0.47;94.76;98971.89;1381223;101;21248;-69
2022/01/08 00:17:57;;;;;;;35.00;20.83;;;;;;;-0.47;94.96;98969.33;1432660;94;21127;-69
2022/01/08 00:20:24;;;;;;;28.47;18.20;;;;;;;-0.47;95.14;98966.33;1506848;91;21587;-69
2022/01/08 00:22:52;;;;;;;28.60;19.07;;;;;;;-0.46;95.08;98960.75;1560564;89;21592;-69
2022/01/08 00:25:19;;;;;;;32.63;19.55;;;;;;;-0.44;95.15;98969.28;1617197;83;21562;-69
2022/01/08 00:27:46;;;;;;;26.90;17.75;;;;;;;-0.44;95.08;98971.84;1715451;82;21549;-69
2022/01/08 00:30:13;;;;;;;24.80;17.70;;;;;;;-0.45;95.02;98967.56;1707744;82;21058;-69
2022/01/08 00:32:41;;;;;;;28.35;18.30;;;;;;;-0.49;94.96;98966.77;1708696;82;26599;-68
2022/01/08 00:35:10;;;;;;;31.07;18.73;;;;;;;-0.52;94.98;98960.85;1711439;83;21065;-68
2022/01/08 00:37:37;;;;;;;26.30;18.37;;;;;;;-0.52;95.11;98963.41;1711354;82;20982;-69
2022/01/08 00:40:12;;;;;;;27.35;17.85;;;;;;;-0.51;95.08;98970.23;1716266;82;21079;-68
2022/01/08 00:42:39;;;;;;;28.38;17.32;;;;;;;-0.51;95.14;98962.53;1722331;82;21552;-68
2022/01/08 00:45:06;;;;;;;26.83;17.50;;;;;;;-0.50;95.16;98968.09;1720159;82;20994;-69
2022/01/08 00:47:34;;;;;;;24.82;16.12;;;;;;;-0.51;95.10;98967.66;1714596;83;21066;-69
2022/01/08 00:50:04;;;;;;;22.77;16.30;;;;;;;-0.52;95.09;98960.85;1714824;82;21088;-70
2022/01/08 00:52:31;;;;;;;28.42;17.45;;;;;;;-0.52;95.24;98954.00;1714269;83;21100;-68
2022/01/08 00:54:58;;;;;;;21.55;15.25;;;;;;;-0.49;95.33;98953.11;1714715;82;21077;-69
2022/01/08 00:57:24;;;;;;;23.07;16.82;;;;;;;-0.38;95.00;98958.92;1711810;82;21001;-69
2022/01/08 00:59:51;;;;;;;28.70;18.90;;;;;;;-0.46;94.97;98960.75;1706106;82;21213;-69
2022/01/08 01:02:17;;;;;;;31.50;19.27;;;;;;;-0.49;95.20;98950.55;1713424;81;21059;-69
2022/01/08 01:04:44;;;;;;;26.60;16.90;;;;;;;-0.46;95.40;98951.78;1687053;83;21054;-69
2022/01/08 01:07:11;;;;;;;27.85;18.17;;;;;;;-0.44;95.38;98948.77;1690696;82;21028;-68
2022/01/08 01:09:37;;;;;;;26.82;16.27;;;;;;;-0.46;95.40;98942.80;1704261;83;21034;-69
2022/01/08 01:12:05;;;;;;;24.32;17.12;;;;;;;-0.35;94.98;98946.05;1690613;82;21539;-68
2022/01/08 01:14:31;;;;;;;;;;;;;;;-0.34;95.01;98942.60;1703097;82;21020;-69
2022/01/08 01:16:58;;;;;;;28.90;17.90;;;;;;;-0.31;94.88;98950.28;1713251;82;21101;-69
2022/01/08 01:19:25;;;;;;;24.23;17.25;;;;;;;-0.30;94.89;98940.42;1730211;82;21105;-68
2022/01/08 01:21:54;;;;;;;26.25;17.35;;;;;;;-0.28;94.93;98939.97;1719289;81;21557;-69
2022/01/08 01:24:23;;;;;;;22.07;15.50;;;;;;;-0.25;94.96;98939.07;1710732;82;21004;-69
2022/01/08 01:27:13;;;;;;;24.00;15.48;;;;;;;-0.26;94.92;98943.33;1681741;83;21027;-68
2022/01/08 01:43:20;;;;;;;17.73;13.40;;;;;;;-0.25;95.21;98939.91;1704428;84;21139;-69
2022/01/08 01:48:08;;;;;;;18.37;13.98;;;;;;;-0.30;95.43;98936.56;1709558;82;21534;-69
2022/01/08 01:50:35;;;;;;;19.05;14.45;;;;;;;-0.32;95.44;98933.17;1702415;82;20950;-69
2022/01/08 01:53:01;;;;;;;19.23;14.05;;;;;;;-0.28;95.30;98927.14;1697557;83;21795;-69
2022/01/08 01:55:28;;;;;;;19.45;14.45;;;;;;;-0.33;95.42;98928.92;1721742;82;21137;-69
2022/01/08 01:57:55;;;;;;;17.10;12.95;;;;;;;-0.31;95.61;98924.63;1719495;81;21372;-69
2022/01/08 02:00:22;;;;;;;17.85;13.75;;;;;;;-0.18;95.40;98911.59;1720049;81;21482;-69
2022/01/08 02:02:48;;;;;;;18.13;14.57;;;;;;;-0.18;95.31;98911.59;1706866;84;21096;-69
2022/01/08 02:05:15;;;;;;;20.82;14.25;;;;;;;-0.17;95.07;98913.27;1705477;83;20996;-69
2022/01/08 02:07:42;;;;;;;19.02;13.98;;;;;;;-0.17;95.11;98918.40;1710490;83;21104;-69
2022/01/08 02:10:10;;;;;;;20.00;13.83;;;;;;;-0.19;95.03;98926.14;1713675;82;21044;-69
2022/01/08 02:12:36;;;;;;;;;;;;;;;-0.22;94.95;98923.63;1713880;82;20983;-70
2022/01/08 02:15:04;;;;;;;20.15;13.90;;;;;;;-0.24;94.92;98927.48;1692136;83;20174;-69
2022/01/08 02:17:30;;;;;;;20.30;14.63;;;;;;;-0.24;94.96;98932.62;1696870;83;21147;-69
2022/01/08 02:19:57;;;;;;;19.30;14.43;;;;;;;-0.25;95.01;98921.11;1702090;82;21066;-69
2022/01/08 02:22:23;;;;;;;18.40;13.32;;;;;;;-0.25;95.10;98916.83;1689557;84;21047;-69
2022/01/08 02:24:50;;;;;;;16.30;13.27;;;;;;;-0.23;95.12;98915.05;1693415;84;20986;-69
2022/01/08 02:27:17;;;;;;;19.12;14.45;;;;;;;-0.23;95.17;98911.65;1674547;84;21010;-69
2022/01/08 02:29:45;;;;;;;19.70;14.30;;;;;;;-0.23;95.18;98915.05;1677274;84;21114;-69
2022/01/08 02:32:15;;;;;;;17.15;13.75;;;;;;;-0.25;95.38;98910.86;1686769;83;21235;-69
2022/01/08 02:34:44;;;;;;;17.45;14.38;;;;;;;-0.21;95.13;98911.64;1672785;84;21069;-69
2022/01/08 02:37:13;;;;;;;19.62;13.60;;;;;;;-0.20;95.21;98910.76;1676868;83;21633;-69
2022/01/08 02:39:45;;;;;;;18.15;13.25;;;;;;;-0.16;95.16;98916.27;1682895;83;21016;-69
2022/01/08 02:42:16;;;;;;;18.07;14.93;;;;;;;-0.18;95.09;98911.59;1712218;83;21011;-69
2022/01/08 02:44:43;;;;;;;17.40;13.22;;;;;;;-0.13;95.31;98909.80;1679450;84;21159;-69
2022/01/08 02:47:14;;;;;;;21.07;14.13;;;;;;;-0.13;95.19;98903.37;1699618;82;21066;-69
2022/01/08 02:49:40;;;;;;;16.35;12.88;;;;;;;-0.13;95.17;98902.94;1679124;84;20987;-69
2022/01/08 02:52:07;;;;;;;19.00;14.07;;;;;;;-0.10;95.29;98904.61;1676451;84;21077;-70
2022/01/08 02:54:34;;;;;;;18.17;14.00;;;;;;;-0.06;95.38;98906.23;1675573;84;20960;-69
2022/01/08 02:57:00;;;;;;;19.42;13.15;;;;;;;-0.06;95.26;98898.53;1673805;84;21953;-69
2022/01/08 02:59:29;;;;;;;18.52;14.13;;;;;;;-0.04;95.35;98901.48;1672548;84;21047;-69
2022/01/08 03:01:55;;;;;;;18.10;13.50;;;;;;;-0.05;95.27;98897.68;1684414;84;20928;-69
2022/01/08 03:04:22;;;;;;;16.93;13.25;;;;;;;-0.06;95.12;98893.41;1672635;84;21560;-69
2022/01/08 03:06:49;;;;;;;15.95;13.22;;;;;;;-0.10;95.00;98891.78;1678831;84;21003;-69
2022/01/08 03:09:15;;;;;;;18.57;13.93;;;;;;;-0.11;95.04;98897.76;1707154;83;21124;-69
2022/01/08 03:11:43;;;;;;;17.73;13.18;;;;;;;-0.14;94.99;98890.13;1705556;83;21535;-69
2022/01/08 03:14:09;;;;;;;;;;;;;;;-0.14;95.05;98887.55;1704051;83;21135;-69
2022/01/08 03:16:37;;;;;;;20.93;14.23;;;;;;;-0.26;95.29;98867.66;1704813;83;20151;-69
2022/01/08 03:19:09;;;;;;;15.30;13.15;;;;;;;-0.26;95.29;98867.66;1701931;83;20967;-69
2022/01/08 03:21:35;;;;;;;16.90;13.68;;;;;;;-0.13;95.30;98890.11;1704503;83;21569;-69
2022/01/08 03:24:01;;;;;;;16.52;13.45;;;;;;;-0.09;95.39;98879.34;1692059;83;21030;-69
2022/01/08 03:26:29;;;;;;;;;;;;;;;-0.08;95.38;98886.19;1711811;83;21587;-70
2022/01/08 03:28:56;;;;;;;15.95;13.18;;;;;;;-0.09;95.27;98881.91;1703160;82;20537;-69
2022/01/08 03:31:25;;;;;;;;;;;;;;;-0.11;95.42;98880.67;1703025;83;21043;-69
2022/01/08 03:33:53;;;;;;;18.20;13.58;;;;;;;-0.12;95.37;98886.66;1682145;84;21009;-70
2022/01/08 03:36:24;;;;;;;16.05;13.28;;;;;;;-0.15;95.20;98883.30;1697730;84;21057;-69
2022/01/08 03:38:53;;;;;;;15.13;12.33;;;;;;;-0.17;95.25;98880.75;1725704;81;21649;-68
2022/01/08 03:41:20;;;;;;;16.42;12.53;;;;;;;-0.18;95.24;98879.08;1735013;81;21606;-69
2022/01/08 03:43:47;;;;;;;16.42;12.90;;;;;;;-0.17;95.28;98872.22;1727575;81;21502;-69
2022/01/08 03:46:13;;;;;;;13.50;11.75;;;;;;;-0.16;95.30;98876.49;1724957;83;21045;-69
2022/01/08 03:51:09;;;;;;;17.35;13.40;;;;;;;-0.21;95.21;98875.72;1721027;81;20990;-69
2022/01/08 03:53:36;;;;;;;15.83;11.63;;;;;;;-0.21;95.27;98869.31;1702932;83;21031;-68
2022/01/08 03:56:03;;;;;;;14.70;12.97;;;;;;;-0.20;95.41;98870.55;1717498;82;21073;-69
2022/01/08 03:58:29;;;;;;;15.45;12.25;;;;;;;-0.17;95.56;98864.52;1702954;83;21457;-69
2022/01/08 04:00:56;;;;;;;16.48;12.95;;;;;;;-0.16;95.51;98861.10;1687228;82;20949;-68
2022/01/08 04:03:23;;;;;;;14.93;12.98;;;;;;;-0.17;95.38;98858.11;1698956;82;21820;-69
2022/01/08 04:05:51;;;;;;;15.95;12.60;;;;;;;-0.20;95.34;98855.16;1701968;82;21110;-68
2022/01/08 04:08:19;;;;;;;15.93;13.40;;;;;;;-0.19;95.36;98859.43;1702657;82;20935;-69
2022/01/08 04:10:46;;;;;;;14.63;12.53;;;;;;;-0.20;95.43;98854.31;1725468;81;21087;-69
2022/01/08 04:13:16;;;;;;;18.05;12.80;;;;;;;-0.20;95.45;98856.88;1705771;83;21006;-68
2022/01/08 04:15:44;;;;;;;16.73;13.43;;;;;;;-0.21;95.35;98850.06;1706314;82;21580;-69
2022/01/08 04:18:10;;;;;;;18.35;13.98;;;;;;;-0.21;95.36;98852.63;1693153;83;21046;-69
2022/01/08 04:21:58;;;;;;;13.93;12.15;;;;;;;-0.26;95.26;98848.41;1698244;83;21026;-69
2022/01/08 04:23:07;;;;;;;17.12;12.30;;;;;;;-0.27;95.36;98849.30;1669797;83;21162;-69
2022/01/08 04:25:35;;;;;;;17.98;13.10;;;;;;;-0.25;95.41;98855.25;1720241;82;21311;-69
2022/01/08 04:28:01;;;;;;;15.30;12.68;;;;;;;-0.23;95.56;98848.35;1717459;82;20974;-69
2022/01/08 04:30:28;;;;;;;15.90;12.87;;;;;;;-0.23;95.44;98850.92;1714167;82;21067;-68
2022/01/08 04:32:55;;;;;;;17.90;13.18;;;;;;;-0.26;95.42;98845.84;1713613;81;21022;-68
2022/01/08 04:35:21;;;;;;;15.63;13.75;;;;;;;-0.27;95.36;98846.73;1709286;83;21119;-69
2022/01/08 04:37:48;;;;;;;16.45;13.43;;;;;;;-0.31;95.34;98842.54;1687240;83;21341;-69
2022/01/08 04:40:14;;;;;;;16.42;13.10;;;;;;;-0.31;95.39;98845.11;1717617;81;20969;-69
2022/01/08 04:42:41;;;;;;;16.25;12.80;;;;;;;-0.31;95.46;98842.54;1704106;82;20973;-69
2022/01/08 04:45:08;;;;;;;14.15;12.63;;;;;;;-0.31;95.51;98831.00;1686121;83;21093;-69
2022/01/08 04:47:35;;;;;;;14.83;12.45;;;;;;;-0.30;95.58;98836.52;1727507;81;21045;-69
2022/01/08 04:50:01;;;;;;;14.50;12.43;;;;;;;-0.28;95.64;98836.06;1713284;82;20946;-68
2022/01/08 04:52:28;;;;;;;14.90;12.37;;;;;;;-0.27;95.65;98832.63;1719513;82;21565;-68
2022/01/08 04:54:54;;;;;;;13.95;12.37;;;;;;;-0.27;95.60;98833.06;1719656;81;21051;-69
2022/01/08 04:57:21;;;;;;;14.95;12.53;;;;;;;-0.28;95.47;98839.92;1716793;81;21015;-69
2022/01/08 04:59:48;;;;;;;15.78;12.05;;;;;;;-0.28;95.64;98841.61;1708144;82;21889;-69
2022/01/08 05:02:14;;;;;;;13.85;11.97;;;;;;;-0.25;95.71;98839.86;1706469;81;20984;-68
2022/01/08 05:04:41;;;;;;;15.60;13.53;;;;;;;-0.24;95.66;98840.26;1691546;82;21073;-69
2022/01/08 05:07:08;;;;;;;16.17;13.48;;;;;;;-0.24;95.67;98833.84;1713269;82;20979;-69
2022/01/08 05:09:34;;;;;;;17.43;14.30;;;;;;;-0.19;95.84;98836.34;1707937;82;21059;-69
2022/01/08 05:12:01;;;;;;;15.68;12.10;;;;;;;-0.17;95.67;98837.58;1707211;81;21870;-69
2022/01/08 05:14:28;;;;;;;14.90;13.20;;;;;;;-0.18;95.56;98832.05;1712593;82;21050;-76
2022/01/08 05:17:00;;;;;;;16.45;13.08;;;;;;;-0.23;95.44;98832.96;1710719;82;21299;-71
2022/01/08 05:19:44;;;;;;;13.90;11.63;;;;;;;-0.25;95.60;98832.16;1710569;82;21004;-72
2022/01/08 05:22:06;;;;;;;14.87;12.70;;;;;;;-0.27;95.49;98836.47;1702288;81;21722;-74
2022/01/08 05:24:35;;;;;;;15.15;13.22;;;;;;;-0.29;95.53;98835.64;1702359;82;21095;-74
2022/01/08 05:27:05;;;;;;;15.95;14.00;;;;;;;-0.32;95.53;98835.70;1697721;82;21043;-74
2022/01/08 05:29:31;;;;;;;14.25;12.75;;;;;;;-0.31;95.71;98834.84;1715729;82;20933;-75
2022/01/08 05:31:58;;;;;;;15.68;12.37;;;;;;;-0.31;95.78;98828.44;1725845;82;21027;-74
2022/01/08 05:34:25;;;;;;;16.90;13.05;;;;;;;-0.34;95.62;98832.30;1718837;82;20990;-75
2022/01/08 05:36:51;;;;;;;16.12;12.50;;;;;;;-0.32;95.73;98820.30;1714889;82;21070;-75
2022/01/08 05:39:18;;;;;;;17.55;14.07;;;;;;;-0.32;95.75;98825.44;1699452;83;21132;-74
2022/01/08 05:41:44;;;;;;;15.35;13.75;;;;;;;-0.30;95.86;98821.13;1714348;83;21166;-75
2022/01/08 05:44:11;;;;;;;15.68;12.88;;;;;;;-0.30;95.81;98816.00;1706813;82;21066;-75
2022/01/08 05:46:39;;;;;;;17.82;13.43;;;;;;;-0.31;95.72;98814.32;1711255;81;20999;-74
2022/01/08 05:49:06;;;;;;;16.55;13.00;;;;;;;-0.31;95.72;98819.45;1708495;82;21147;-74
2022/01/08 05:51:32;;;;;;;15.48;13.60;;;;;;;-0.30;95.76;98818.56;1717399;82;21014;-75
2022/01/08 05:53:59;;;;;;;15.35;13.08;;;;;;;-0.30;95.83;98816.00;1714038;82;21057;-74
2022/01/08 05:56:25;;;;;;;15.98;12.90;;;;;;;-0.28;95.85;98819.39;1718118;82;21074;-75
2022/01/08 05:58:52;;;;;;;16.07;14.03;;;;;;;-0.29;95.87;98815.12;1715459;82;21094;-75
2022/01/08 06:01:18;;;;;;;16.82;14.00;;;;;;;-0.30;95.93;98810.88;1713926;81;21081;-75
2022/01/08 06:03:45;;;;;;;15.60;13.43;;;;;;;-0.27;95.96;98818.52;1714749;82;21066;-75
2022/01/08 06:06:12;;;;;;;16.93;12.82;;;;;;;-0.25;96.00;98811.64;1713051;83;21023;-75
2022/01/08 06:08:38;;;;;;;16.82;14.53;;;;;;;-0.25;95.97;98814.20;1713291;83;21047;-74
2022/01/08 06:11:05;;;;;;;17.70;13.85;;;;;;;-0.30;95.90;98810.88;1716787;82;21027;-75
2022/01/08 06:13:32;;;;;;;18.48;14.15;;;;;;;-0.31;96.10;98809.20;1706216;82;22411;-75
2022/01/08 06:15:59;;;;;;;16.93;14.07;;;;;;;-0.32;96.04;98810.05;1710988;82;20964;-75
2022/01/08 06:18:25;;;;;;;17.35;14.65;;;;;;;-0.33;96.08;98814.78;1711352;82;20965;-74
2022/01/08 06:20:52;;;;;;;16.55;14.10;;;;;;;-0.33;96.09;98817.34;1712866;81;21114;-74
2022/01/08 06:23:19;;;;;;;15.68;14.03;;;;;;;-0.33;96.15;98816.06;1709309;82;21684;-73
2022/01/08 06:25:45;;;;;;;15.68;13.53;;;;;;;-0.33;96.15;98818.63;1709126;82;21043;-75
2022/01/08 06:28:12;;;;;;;19.10;13.70;;;;;;;-0.32;96.28;98811.33;1709069;82;21637;-74
2022/01/08 06:30:39;;;;;;;16.47;14.27;;;;;;;-0.27;96.27;98815.11;1709971;82;21055;-74
2022/01/08 06:33:05;;;;;;;14.28;12.70;;;;;;;-0.26;96.16;98816.78;1709695;82;20968;-75
2022/01/08 06:35:32;;;;;;;18.48;13.95;;;;;;;-0.25;96.17;98814.20;1714565;81;21692;-74
2022/01/08 06:37:59;;;;;;;15.75;13.30;;;;;;;-0.26;96.08;98817.63;1713004;82;21626;-74
2022/01/08 06:40:26;;;;;;;18.27;14.40;;;;;;;-0.23;96.20;98817.56;1714752;81;21642;-74
2022/01/08 06:42:53;;;;;;;18.30;14.90;;;;;;;-0.25;96.07;98812.92;1713966;82;21652;-74
2022/01/08 06:45:20;;;;;;;22.83;16.20;;;;;;;-0.23;96.09;98822.70;1703950;82;21012;-74
2022/01/08 06:47:47;;;;;;;19.62;16.20;;;;;;;-0.23;96.04;98825.27;1712492;81;20987;-74
2022/01/08 06:50:14;;;;;;;21.45;15.40;;;;;;;-0.24;96.04;98832.56;1714556;81;21087;-74
2022/01/08 06:52:41;;;;;;;21.90;15.40;;;;;;;-0.20;96.22;98822.24;1714104;81;21053;-74
2022/01/08 06:55:12;;;;;;;24.45;16.12;;;;;;;-0.17;96.22;98826.03;1714727;81;21108;-73
2022/01/08 06:57:40;;;;;;;27.45;17.15;;;;;;;-0.18;96.17;98821.78;1714336;81;21664;-74
2022/01/08 07:00:10;;;;;;;21.77;16.23;;;;;;;-0.20;96.26;98823.53;1681767;83;20929;-74
2022/01/08 07:02:59;;;;;;;19.35;14.30;;;;;;;-0.11;96.29;98809.23;1866414;76;22663;-75
2022/01/08 07:05:26;;;;;;;17.90;13.75;;;;;;;-0.13;96.24;98817.42;1826082;78;22948;-76
2022/01/08 07:07:52;;;;;;;15.68;14.07;;;;;;;-0.13;96.13;98825.12;1824933;77;21411;-72
2022/01/08 07:10:19;;;;;;;14.75;12.95;;;;;;;-0.17;96.03;98812.77;1824691;78;20953;-73
2022/01/08 07:12:46;;;;;;;16.25;13.43;;;;;;;-0.19;95.93;98813.69;1816838;78;21512;-78
2022/01/08 07:15:13;;;;;;;16.25;12.68;;;;;;;-0.21;95.91;98812.87;1820825;77;21511;-77
2022/01/08 07:17:40;;;;;;;16.80;13.40;;;;;;;-0.36;96.10;98814.83;1820892;78;21005;-74
2022/01/08 07:20:09;;;;;;;15.98;13.15;;;;;;;-0.37;96.13;98813.13;1806100;78;21902;-74
2022/01/08 07:22:35;;;;;;;16.15;13.40;;;;;;;-0.32;96.18;98810.05;1807584;78;20934;-71
2022/01/08 07:25:03;;;;;;;16.05;14.35;;;;;;;-0.35;96.29;98812.67;1806942;78;21480;-76
2022/01/08 07:27:32;;;;;;;14.33;12.65;;;;;;;-0.27;96.13;98813.82;1785801;78;21048;-77
2022/01/08 07:30:08;;;;;;;16.02;12.88;;;;;;;-0.27;95.97;98808.25;1809700;78;20976;-75
2022/01/08 07:32:48;;;;;;;17.52;13.25;;;;;;;-0.25;95.99;98811.64;1808569;78;21454;-74
2022/01/08 07:35:19;;;;;;;14.45;12.73;;;;;;;-0.24;96.03;98810.75;1798399;78;20969;-72
2022/01/08 07:37:46;;;;;;;15.13;13.53;;;;;;;-0.18;96.06;98811.52;1801624;78;21575;-73
2022/01/08 07:40:14;;;;;;;17.02;13.80;;;;;;;-0.17;96.01;98813.20;1798977;78;20979;-72
2022/01/08 07:42:41;;;;;;;16.32;12.65;;;;;;;-0.12;96.11;98816.53;1806208;77;21559;-76
2022/01/08 07:45:11;;;;;;;16.17;13.08;;;;;;;-0.05;96.19;98816.84;1793957;78;21071;-76
2022/01/08 07:47:38;;;;;;;15.15;13.35;;;;;;;-0.03;96.03;98816.36;1803627;78;20883;-75
2022/01/08 07:50:07;;;;;;;16.20;13.53;;;;;;;0.04;96.18;98817.94;1797033;78;20958;-75
2022/01/08 07:52:34;;;;;;;18.98;14.40;;;;;;;0.07;96.11;98830.72;1790892;78;20935;-75
2022/01/08 07:55:01;;;;;;;18.62;15.15;;;;;;;0.06;95.91;98822.62;1795183;78;20926;-76
2022/01/08 07:57:28;;;;;;;18.57;14.70;;;;;;;0.05;95.87;98818.34;1802615;78;21970;-78
2022/01/08 07:59:55;;;;;;;18.50;15.13;;;;;;;0.05;95.82;98815.77;1805122;77;20981;-74
2022/01/08 08:02:21;;;;;;;17.53;14.50;;;;;;;0.08;96.00;98811.86;1813138;77;20989;-76
2022/01/08 08:05:02;;;;;;;17.67;14.37;;;;;;;0.11;96.06;98810.96;1807531;77;20970;-64
2022/01/08 08:07:37;;;;;;;20.55;15.25;;;;;;;0.17;96.08;98807.85;1803193;77;21537;-63
2022/01/08 08:10:08;;;;;;;17.25;15.05;;;;;;;0.23;95.97;98800.91;1802343;78;21435;-63
2022/01/08 08:12:35;;;;;;;19.73;16.67;;;;;;;0.29;96.10;98796.93;1798758;78;21016;-63
2022/01/08 08:15:02;;;;;;;18.52;14.65;;;;;;;0.31;95.88;98804.14;1800385;78;20977;-63
2022/01/08 08:17:28;;;;;;;19.40;14.70;;;;;;;0.34;95.89;98802.82;1814526;77;21571;-63
2022/01/08 08:20:19;;;;;;;19.50;15.60;;;;;;;0.40;95.96;98805.25;1792370;78;21196;-73
2022/01/08 08:22:46;;;;;;;20.68;15.70;;;;;;;0.37;95.93;98792.48;1805750;78;21063;-72
2022/01/08 08:25:15;;;;;;;18.60;14.50;;;;;;;0.28;96.21;98797.37;1803693;78;26454;-73
2022/01/08 08:27:43;;;;;;;21.52;16.37;;;;;;;0.40;96.11;98780.42;1796611;78;20934;-73
2022/01/08 08:30:12;;;;;;;17.82;15.48;;;;;;;0.39;96.04;98784.28;1804572;78;21055;-74
2022/01/08 08:32:39;;;;;;;20.95;15.40;;;;;;;0.37;96.24;98777.08;1801436;78;21490;-74
2022/01/08 08:35:09;;;;;;;20.08;17.02;;;;;;;0.46;96.03;98780.72;1812844;77;21140;-72
2022/01/08 08:37:37;;;;;;;20.25;15.90;;;;;;;0.46;96.28;98780.72;1802729;78;21602;-74
2022/01/08 08:40:06;;;;;;;19.92;15.48;;;;;;;0.51;96.34;98778.91;1799441;78;21610;-74
2022/01/08 08:42:34;;;;;;;21.45;16.73;;;;;;;0.53;96.32;98775.00;1795120;78;20969;-74
2022/01/08 08:45:04;;;;;;;22.77;17.02;;;;;;;0.58;96.27;98773.19;1753452;78;21504;-74
2022/01/08 08:47:32;;;;;;;21.93;17.15;;;;;;;0.64;96.24;98779.05;1798197;78;21185;-74
2022/01/08 08:50:02;;;;;;;21.82;15.55;;;;;;;0.71;95.90;98777.62;1796655;78;21033;-74
2022/01/08 08:52:34;;;;;;;22.70;17.17;;;;;;;0.65;96.37;98775.59;1800204;78;21521;-74
2022/01/08 08:55:01;;;;;;;22.10;16.60;;;;;;;0.64;95.97;98779.47;1805259;77;21045;-74
2022/01/08 08:57:27;;;;;;;24.00;17.60;;;;;;;0.62;96.07;98787.22;1799289;78;21009;-74
2022/01/08 08:59:55;;;;;;;24.67;17.27;;;;;;;0.58;96.26;98783.46;1798826;78;21090;-74
2022/01/08 09:02:22;;;;;;;26.10;19.55;;;;;;;0.63;96.07;98779.91;1797869;78;21594;-75
2022/01/08 09:04:51;;;;;;;31.27;19.37;;;;;;;0.47;96.03;98781.56;1806147;78;20966;-75
2022/01/08 09:07:19;;;;;;;23.38;18.23;;;;;;;0.47;96.23;98773.41;1806618;78;21013;-74
2022/01/08 09:09:46;;;;;;;22.37;16.80;;;;;;;0.55;96.50;98771.52;1812868;78;20966;-74
2022/01/08 09:12:16;;;;;;;23.60;17.37;;;;;;;0.56;96.63;98773.23;1806168;77;21076;-75
2022/01/08 09:14:44;;;;;;;22.80;18.02;;;;;;;0.69;96.55;98770.38;1799126;78;21064;-74
2022/01/08 09:17:13;;;;;;;24.12;18.07;;;;;;;0.72;96.50;98767.74;1823419;78;21564;-75
2022/01/08 09:19:45;;;;;;;23.83;17.45;;;;;;;0.78;96.64;98758.60;1823897;78;21025;-75
2022/01/08 09:22:14;;;;;;;25.52;18.25;;;;;;;0.82;96.56;98764.09;1804345;78;20938;-74
2022/01/08 09:24:41;;;;;;;24.05;18.67;;;;;;;0.82;96.10;98753.81;1813799;78;21102;-74
2022/01/08 09:27:08;;;;;;;25.17;18.32;;;;;;;0.84;96.05;98762.30;1821527;78;21129;-74
2022/01/08 09:29:35;;;;;;;27.65;19.55;;;;;;;0.97;96.03;98767.57;1819011;78;21032;-74
2022/01/08 09:32:07;;;;;;;25.77;18.40;;;;;;;1.05;96.03;98766.95;1812885;78;21647;-74
2022/01/08 09:34:36;;;;;;;24.05;18.30;;;;;;;1.14;95.89;98759.91;1824092;78;20938;-74
2022/01/08 09:37:05;;;;;;;28.15;18.02;;;;;;;1.10;95.49;98764.28;1817353;77;21623;-74
2022/01/08 09:39:33;;;;;;;29.50;19.30;;;;;;;0.96;95.89;98764.61;1821289;78;21102;-74
2022/01/08 09:42:00;;;;;;;29.57;19.90;;;;;;;1.01;96.18;98758.05;1825216;78;21056;-73
2022/01/08 09:44:27;;;;;;;24.95;19.73;;;;;;;1.00;96.23;98757.22;1782070;78;25270;-73
2022/01/08 09:46:53;;;;;;;30.97;20.17;;;;;;;1.17;95.97;98752.11;1820056;78;20942;-73
2022/01/08 09:49:20;;;;;;;27.80;19.90;;;;;;;1.25;95.91;98750.20;1820653;77;21052;-75
2022/01/08 09:51:50;;;;;;;27.67;20.77;;;;;;;1.20;95.79;98746.89;1824171;78;21032;-80
2022/01/08 09:54:16;;;;;;;30.15;20.00;;;;;;;1.19;96.16;98741.36;1823851;78;21473;-73
2022/01/08 09:56:43;;;;;;;30.57;21.35;;;;;;;1.41;95.79;98748.09;1825796;78;20969;-75
2022/01/08 09:59:09;;;;;;;28.65;21.05;;;;;;;1.40;95.66;98739.95;1821383;78;21020;-74
2022/01/08 10:01:36;;;;;;;25.80;19.55;;;;;;;1.37;96.04;98744.73;1825625;78;21206;-75
2022/01/08 10:04:05;;;;;;;28.30;19.55;;;;;;;1.39;95.91;98739.11;1828725;78;20938;-76
2022/01/08 10:06:35;;;;;;;26.07;19.52;;;;;;;1.26;95.61;98739.02;1830346;77;21020;-76
2022/01/08 10:09:05;;;;;;;24.90;18.62;;;;;;;1.23;96.04;98744.23;1827082;78;20950;-75
2022/01/08 10:11:37;;;;;;;26.12;17.87;;;;;;;1.32;95.84;98741.45;1831837;78;21626;-76
2022/01/08 10:14:15;;;;;;;25.02;17.50;;;;;;;1.23;95.90;98736.52;1819318;77;21962;-74
2022/01/08 10:19:25;;;;;;;24.90;17.65;;;;;;;1.30;96.14;98732.93;1831640;78;21036;-76
2022/01/08 10:22:17;;;;;;;22.50;17.45;;;;;;;1.53;96.07;98731.88;1827557;78;20962;-76
2022/01/08 10:24:43;;;;;;;22.98;16.75;;;;;;;1.58;95.75;98727.91;1846249;77;21590;-77
2022/01/08 10:27:11;;;;;;;20.80;16.65;;;;;;;1.49;95.27;98729.00;1848686;76;21910;-77
2022/01/08 10:29:37;;;;;;;20.12;15.28;;;;;;;1.41;95.54;98732.66;1848414;76;26496;-75
2022/01/08 10:32:07;;;;;;;24.60;16.40;;;;;;;1.55;95.97;98726.25;1848363;76;21560;-76
2022/01/08 10:34:34;;;;;;;19.85;16.12;;;;;;;1.66;95.61;98722.11;1841337;76;20933;-73
2022/01/08 10:37:04;;;;;;;24.17;15.87;;;;;;;1.67;95.55;98712.66;1839010;76;21108;-77
2022/01/08 10:39:35;;;;;;;20.48;15.05;;;;;;;1.61;95.75;98711.55;1836034;76;21064;-78
2022/01/08 10:42:12;;;;;;;16.85;13.80;;;;;;;1.73;95.60;98709.91;1837114;76;21020;-76
2022/01/08 10:44:41;;;;;;;22.20;14.98;;;;;;;1.75;95.25;98713.30;1833385;76;21048;-77
2022/01/08 10:47:13;;;;;;;22.42;14.65;;;;;;;1.66;95.35;98716.12;1838070;76;21473;-78
2022/01/08 10:49:48;;;;;;;17.65;13.55;;;;;;;1.57;94.99;98713.36;1836051;76;21067;-74
2022/01/08 10:52:21;;;;;;;21.77;15.13;;;;;;;1.43;95.06;98712.45;1836374;76;21055;-75
2022/01/08 10:54:56;;;;;;;18.50;14.05;;;;;;;1.30;95.29;98709.78;1839221;76;20974;-74
2022/01/08 10:57:33;;;;;;;18.37;13.38;;;;;;;1.34;95.33;98701.09;1834407;76;21052;-75
2022/01/08 11:00:02;;;;;;;16.67;12.23;;;;;;;1.27;95.36;98715.01;1829660;76;21026;-77
2022/01/08 11:02:31;;;;;;;15.68;11.80;;;;;;;1.26;95.74;98710.73;1835536;77;20966;-76
2022/01/08 11:04:59;;;;;;;;;;;;;;;1.24;95.96;98712.52;1814404;77;21242;-76
2022/01/08 11:07:31;;;;;;;15.23;11.90;;;;;;;1.25;95.85;98702.17;1840273;76;20144;-74
2022/01/08 11:10:08;;;;;;;13.68;11.03;;;;;;;1.20;95.78;98703.17;1841623;76;22202;-76
2022/01/08 11:12:41;;;;;;;13.98;12.23;;;;;;;1.21;95.84;98699.73;1835442;76;21045;-77
2022/01/08 11:17:50;;;;;;;14.35;11.40;;;;;;;1.15;95.92;98694.73;1836285;76;21513;-75
2022/01/08 11:20:21;;;;;;;14.13;11.28;;;;;;;1.16;96.06;98690.02;1836392;76;21039;-74
2022/01/08 11:22:54;;;;;;;13.65;11.45;;;;;;;1.09;95.87;98682.46;1839254;77;20979;-74
2022/01/08 11:25:27;;;;;;;18.37;12.80;;;;;;;1.19;95.63;98679.64;1831454;77;21051;-76
2022/01/08 11:28:10;;;;;;;13.70;10.85;;;;;;;1.27;95.60;98680.30;1832531;77;21000;-73
2022/01/08 11:30:50;;;;;;;16.05;11.90;;;;;;;1.23;95.29;98677.38;1831858;77;21572;-76
2022/01/08 11:33:24;;;;;;;14.73;11.40;;;;;;;1.16;95.72;98678.44;1828998;77;21038;-75
2022/01/08 11:35:51;;;;;;;17.52;12.82;;;;;;;1.20;95.92;98682.61;1830132;77;20936;-74
2022/01/08 11:38:22;;;;;;;16.57;11.53;;;;;;;1.19;95.73;98675.79;1827066;76;21026;-74
2022/01/08 11:40:57;;;;;;;18.80;13.83;;;;;;;1.23;95.70;98679.95;1829685;77;21060;-75
2022/01/08 11:43:25;;;;;;;13.98;11.73;;;;;;;1.25;95.59;98675.62;1832836;76;21261;-75
2022/01/08 11:46:05;;;;;;;14.23;11.35;;;;;;;1.27;95.86;98679.00;1832522;77;21052;-75
2022/01/08 11:48:51;;;;;;;15.30;10.63;;;;;;;1.27;95.95;98676.44;1808834;78;21088;-74
2022/01/08 11:51:24;;;;;;;15.05;12.10;;;;;;;1.30;96.10;98681.49;1829635;77;21072;-75